sensor_id;sensor_type;location;lat;lon;timestamp;pressure;altitude;pressure_sealevel;temperature;humidity
30856;BME280;17570;0.000;0.000;2022-08-14T00:01:37;96376.41;;;28.95;41.72
30856;BME280;17570;0.000;0.000;2022-08-14T00:04:05;96376.72;;;28.99;41.52
30856;BME280;17570;0.000;0.000;2022-08-14T00:06:32;96370.84;;;28.97;41.38
30856;BME280;17570;0.000;0.000;2022-08-14T00:09:00;96364.09;;;28.94;41.62
30856;BME280;17570;0.000;0.000;2022-08-14T00:11:27;96362.48;;;28.93;41.60
30856;BME280;17570;0.000;0.000;2022-08-14T00:13:55;96365.66;;;28.90;41.47
30856;BME280;17570;0.000;0.000;2022-08-14T00:16:23;96370.14;;;28.85;41.36
30856;BME280;17570;0.000;0.000;2022-08-14T00:18:51;96377.90;;;28.86;41.46
30856;BME280;17570;0.000;0.000;2022-08-14T00:21:18;96373.67;;;28.90;41.54
30856;BME280;17570;0.000;0.000;2022-08-14T00:23:46;96371.56;;;28.92;41.45
30856;BME280;17570;0.000;0.000;2022-08-14T00:26:13;96369.12;;;28.91;41.45
30856;BME280;17570;0.000;0.000;2022-08-14T00:28:41;96357.64;;;28.90;41.34
30856;BME280;17570;0.000;0.000;2022-08-14T00:31:08;96355.19;;;28.84;41.42
30856;BME280;17570;0.000;0.000;2022-08-14T00:33:36;96353.01;;;28.81;41.47
30856;BME280;17570;0.000;0.000;2022-08-14T00:36:04;96355.67;;;28.81;41.41
30856;BME280;17570;0.000;0.000;2022-08-14T00:38:32;96355.32;;;28.72;41.36
30856;BME280;17570;0.000;0.000;2022-08-14T00:41:01;96345.16;;;28.69;41.57
30856;BME280;17570;0.000;0.000;2022-08-14T00:43:28;96342.23;;;28.70;41.45
30856;BME280;17570;0.000;0.000;2022-08-14T00:45:56;96335.28;;;28.69;41.58
30856;BME280;17570;0.000;0.000;2022-08-14T00:48:23;96329.98;;;28.75;41.63
30856;BME280;17570;0.000;0.000;2022-08-14T00:50:51;96330.48;;;28.71;41.63
30856;BME280;17570;0.000;0.000;2022-08-14T00:53:20;96331.05;;;28.73;41.55
30856;BME280;17570;0.000;0.000;2022-08-14T00:55:49;96327.53;;;28.68;41.47
30856;BME280;17570;0.000;0.000;2022-08-14T00:58:17;96326.65;;;28.62;41.56
30856;BME280;17570;0.000;0.000;2022-08-14T01:01:04;96323.93;;;28.57;41.54
30856;BME280;17570;0.000;0.000;2022-08-14T01:03:26;96312.70;;;28.55;41.84
30856;BME280;17570;0.000;0.000;2022-08-14T01:05:56;96311.69;;;28.61;41.66
30856;BME280;17570;0.000;0.000;2022-08-14T01:08:25;96311.43;;;28.63;41.76
30856;BME280;17570;0.000;0.000;2022-08-14T01:10:54;96311.43;;;28.63;41.79
30856;BME280;17570;0.000;0.000;2022-08-14T01:13:29;96313.30;;;28.62;41.48
30856;BME280;17570;0.000;0.000;2022-08-14T01:15:59;96312.75;;;28.60;41.58
30856;BME280;17570;0.000;0.000;2022-08-14T01:18:28;96308.48;;;28.59;41.43
30856;BME280;17570;0.000;0.000;2022-08-14T01:21:14;96302.34;;;28.59;41.50
30856;BME280;17570;0.000;0.000;2022-08-14T01:23:46;96294.46;;;28.47;41.74
30856;BME280;17570;0.000;0.000;2022-08-14T01:26:16;96293.45;;;28.53;41.68
30856;BME280;17570;0.000;0.000;2022-08-14T01:28:46;96295.88;;;28.55;41.62
30856;BME280;17570;0.000;0.000;2022-08-14T01:31:16;96295.08;;;28.54;41.67
30856;BME280;17570;0.000;0.000;2022-08-14T01:33:45;96295.13;;;28.59;41.46
30856;BME280;17570;0.000;0.000;2022-08-14T01:36:14;96302.34;;;28.59;41.38
30856;BME280;17570;0.000;0.000;2022-08-14T01:38:46;96301.27;;;28.60;41.38
30856;BME280;17570;0.000;0.000;2022-08-14T01:41:18;96301.72;;;28.52;41.47
30856;BME280;17570;0.000;0.000;2022-08-14T01:43:53;96294.20;;;28.48;41.36
30856;BME280;17570;0.000;0.000;2022-08-14T01:46:15;96293.40;;;28.48;41.22
30856;BME280;17570;0.000;0.000;2022-08-14T01:48:43;96290.19;;;28.46;41.46
30856;BME280;17570;0.000;0.000;2022-08-14T01:51:13;96292.86;;;28.46;41.41
30856;BME280;17570;0.000;0.000;2022-08-14T01:53:41;96291.03;;;28.52;41.69
30856;BME280;17570;0.000;0.000;2022-08-14T01:56:09;96290.77;;;28.53;41.56
30856;BME280;17570;0.000;0.000;2022-08-14T01:58:37;96293.45;;;28.53;41.61
30856;BME280;17570;0.000;0.000;2022-08-14T02:01:05;96288.10;;;28.53;41.54
30856;BME280;17570;0.000;0.000;2022-08-14T02:03:38;96278.18;;;28.48;41.47
30856;BME280;17570;0.000;0.000;2022-08-14T02:06:01;96278.75;;;28.51;41.57
30856;BME280;17570;0.000;0.000;2022-08-14T02:08:30;96277.69;;;28.52;41.54
30856;BME280;17570;0.000;0.000;2022-08-14T02:10:58;96275.02;;;28.52;41.50
30856;BME280;17570;0.000;0.000;2022-08-14T02:13:47;96268.30;;;28.49;41.62
30856;BME280;17570;0.000;0.000;2022-08-14T02:16:19;96276.48;;;28.37;41.78
30856;BME280;17570;0.000;0.000;2022-08-14T02:18:46;96260.77;;;28.41;41.63
30856;BME280;17570;0.000;0.000;2022-08-14T02:21:14;96269.89;;;28.45;41.59
30856;BME280;17570;0.000;0.000;2022-08-14T02:23:44;96270.43;;;28.47;41.58
30856;BME280;17570;0.000;0.000;2022-08-14T02:26:14;96275.77;;;28.47;41.69
30856;BME280;17570;0.000;0.000;2022-08-14T02:28:41;96266.16;;;28.46;41.70
30856;BME280;17570;0.000;0.000;2022-08-14T02:31:09;96269.89;;;28.45;41.78
30856;BME280;17570;0.000;0.000;2022-08-14T02:33:37;96271.50;;;28.46;41.80
30856;BME280;17570;0.000;0.000;2022-08-14T02:36:07;96265.63;;;28.49;41.73
30856;BME280;17570;0.000;0.000;2022-08-14T02:38:35;96254.15;;;28.48;41.76
30856;BME280;17570;0.000;0.000;2022-08-14T02:41:03;96258.99;;;28.52;41.72
30856;BME280;17570;0.000;0.000;2022-08-14T02:43:31;96256.59;;;28.50;41.70
30856;BME280;17570;0.000;0.000;2022-08-14T02:45:59;96256.02;;;28.48;41.64
30856;BME280;17570;0.000;0.000;2022-08-14T02:48:28;96255.97;;;28.43;41.74
30856;BME280;17570;0.000;0.000;2022-08-14T02:50:58;96255.66;;;28.39;41.79
30856;BME280;17570;0.000;0.000;2022-08-14T02:53:25;96257.53;;;28.39;41.75
30856;BME280;17570;0.000;0.000;2022-08-14T02:55:53;96259.21;;;28.45;41.72
30856;BME280;17570;0.000;0.000;2022-08-14T02:58:21;96256.50;;;28.40;41.69
30856;BME280;17570;0.000;0.000;2022-08-14T03:00:49;96257.25;;;28.35;41.67
30856;BME280;17570;0.000;0.000;2022-08-14T03:03:17;96250.05;;;28.36;41.69
30856;BME280;17570;0.000;0.000;2022-08-14T03:05:46;96256.50;;;28.40;41.59
30856;BME280;17570;0.000;0.000;2022-08-14T03:08:15;96255.38;;;28.36;41.64
30856;BME280;17570;0.000;0.000;2022-08-14T03:10:43;96257.67;;;28.27;41.67
30856;BME280;17570;0.000;0.000;2022-08-14T03:13:11;96257.14;;;28.30;41.84
30856;BME280;17570;0.000;0.000;2022-08-14T03:15:39;96250.77;;;28.31;41.75
30856;BME280;17570;0.000;0.000;2022-08-14T03:18:12;96257.25;;;28.35;41.78
30856;BME280;17570;0.000;0.000;2022-08-14T03:20:40;96257.41;;;28.29;41.69
30856;BME280;17570;0.000;0.000;2022-08-14T03:23:08;96258.96;;;28.25;41.65
30856;BME280;17570;0.000;0.000;2022-08-14T03:25:35;96255.23;;;28.26;41.76
30856;BME280;17570;0.000;0.000;2022-08-14T03:28:03;96256.34;;;28.30;41.84
30856;BME280;17570;0.000;0.000;2022-08-14T03:30:32;96261.68;;;28.30;41.70
30856;BME280;17570;0.000;0.000;2022-08-14T03:33:01;96262.25;;;28.32;41.73
30856;BME280;17570;0.000;0.000;2022-08-14T03:35:29;96266.52;;;28.33;41.78
30856;BME280;17570;0.000;0.000;2022-08-14T03:38:06;96261.19;;;28.33;41.88
30856;BME280;17570;0.000;0.000;2022-08-14T03:40:38;96258.52;;;28.33;42.04
30856;BME280;17570;0.000;0.000;2022-08-14T03:43:06;96260.56;;;28.26;42.35
30856;BME280;17570;0.000;0.000;2022-08-14T03:45:35;96265.15;;;28.30;42.26
30856;BME280;17570;0.000;0.000;2022-08-14T03:48:13;96261.19;;;28.33;41.94
30856;BME280;17570;0.000;0.000;2022-08-14T03:50:43;96254.24;;;28.32;41.96
30856;BME280;17570;0.000;0.000;2022-08-14T03:53:10;96254.42;;;28.25;42.24
30856;BME280;17570;0.000;0.000;2022-08-14T03:55:39;96256.91;;;28.32;42.34
30856;BME280;17570;0.000;0.000;2022-08-14T03:58:07;96260.95;;;28.34;42.47
30856;BME280;17570;0.000;0.000;2022-08-14T04:00:35;96260.13;;;28.34;42.73
30856;BME280;17570;0.000;0.000;2022-08-14T04:03:03;96253.75;;;28.35;42.89
30856;BME280;17570;0.000;0.000;2022-08-14T04:05:31;96254.32;;;28.37;42.92
30856;BME280;17570;0.000;0.000;2022-08-14T04:07:59;96269.84;;;28.40;43.00
30856;BME280;17570;0.000;0.000;2022-08-14T04:10:27;96268.78;;;28.41;43.17
30856;BME280;17570;0.000;0.000;2022-08-14T04:12:54;96269.84;;;28.40;43.29
30856;BME280;17570;0.000;0.000;2022-08-14T04:15:24;96263.44;;;28.41;43.34
30856;BME280;17570;0.000;0.000;2022-08-14T04:17:52;96265.84;;;28.42;43.62
30856;BME280;17570;0.000;0.000;2022-08-14T04:20:20;96266.39;;;28.44;43.47
30856;BME280;17570;0.000;0.000;2022-08-14T04:22:48;96266.96;;;28.46;43.26
30856;BME280;17570;0.000;0.000;2022-08-14T04:25:17;96272.30;;;28.46;43.53
30856;BME280;17570;0.000;0.000;2022-08-14T04:27:45;96268.78;;;28.41;43.85
30856;BME280;17570;0.000;0.000;2022-08-14T04:30:12;96265.36;;;28.45;43.46
30856;BME280;17570;0.000;0.000;2022-08-14T04:32:40;96270.39;;;28.42;43.77
30856;BME280;17570;0.000;0.000;2022-08-14T04:35:08;96273.59;;;28.44;43.62
30856;BME280;17570;0.000;0.000;2022-08-14T04:37:36;96267.77;;;28.47;43.53
30856;BME280;17570;0.000;0.000;2022-08-14T04:40:21;96268.56;;;28.47;43.76
30856;BME280;17570;0.000;0.000;2022-08-14T04:43:07;96271.63;;;28.34;44.28
30856;BME280;17570;0.000;0.000;2022-08-14T04:45:53;96268.58;;;28.26;44.35
30856;BME280;17570;0.000;0.000;2022-08-14T04:48:20;96261.32;;;28.21;44.17
30856;BME280;17570;0.000;0.000;2022-08-14T04:50:49;96273.73;;;28.32;43.82
30856;BME280;17570;0.000;0.000;2022-08-14T04:53:18;96269.84;;;28.40;43.68
30856;BME280;17570;0.000;0.000;2022-08-14T04:55:46;96263.94;;;28.38;44.22
30856;BME280;17570;0.000;0.000;2022-08-14T04:58:14;96274.61;;;28.38;44.43
30856;BME280;17570;0.000;0.000;2022-08-14T05:00:43;96276.79;;;28.41;44.53
30856;BME280;17570;0.000;0.000;2022-08-14T05:03:12;96273.86;;;28.42;44.53
30856;BME280;17570;0.000;0.000;2022-08-14T05:05:39;96273.36;;;28.45;44.17
30856;BME280;17570;0.000;0.000;2022-08-14T05:08:08;96271.23;;;28.47;43.81
30856;BME280;17570;0.000;0.000;2022-08-14T05:10:41;96282.98;;;28.46;43.91
30856;BME280;17570;0.000;0.000;2022-08-14T05:13:09;96276.79;;;28.41;43.53
30856;BME280;17570;0.000;0.000;2022-08-14T05:15:38;96271.14;;;28.37;43.84
30856;BME280;17570;0.000;0.000;2022-08-14T05:18:07;96273.55;;;28.39;43.90
30856;BME280;17570;0.000;0.000;2022-08-14T05:20:39;96275.19;;;28.40;43.80
30856;BME280;17570;0.000;0.000;2022-08-14T05:23:09;96276.13;;;28.56;45.36
30856;BME280;17570;0.000;0.000;2022-08-14T05:25:36;96274.91;;;28.68;45.67
30856;BME280;17570;0.000;0.000;2022-08-14T05:28:08;96279.23;;;28.75;45.05
30856;BME280;17570;0.000;0.000;2022-08-14T05:30:36;96280.80;;;28.70;44.62
30856;BME280;17570;0.000;0.000;2022-08-14T05:33:04;96270.38;;;28.69;44.57
30856;BME280;17570;0.000;0.000;2022-08-14T05:35:32;96267.70;;;28.69;44.55
30856;BME280;17570;0.000;0.000;2022-08-14T05:38:05;96277.81;;;28.67;44.75
30856;BME280;17570;0.000;0.000;2022-08-14T05:40:29;96275.14;;;28.67;44.63
30856;BME280;17570;0.000;0.000;2022-08-14T05:42:57;96283.42;;;28.65;44.65
30856;BME280;17570;0.000;0.000;2022-08-14T05:45:24;96283.92;;;28.62;44.63
30856;BME280;17570;0.000;0.000;2022-08-14T05:47:52;96278.34;;;28.64;44.60
30856;BME280;17570;0.000;0.000;2022-08-14T05:50:20;96281.81;;;28.64;44.54
30856;BME280;17570;0.000;0.000;2022-08-14T05:52:48;96282.81;;;28.58;45.03
30856;BME280;17570;0.000;0.000;2022-08-14T05:55:16;96284.98;;;28.61;45.02
30856;BME280;17570;0.000;0.000;2022-08-14T05:57:47;96282.00;;;28.58;45.25
30856;BME280;17570;0.000;0.000;2022-08-14T06:00:16;96287.11;;;28.59;45.32
30856;BME280;17570;0.000;0.000;2022-08-14T06:02:44;96291.88;;;28.57;45.44
30856;BME280;17570;0.000;0.000;2022-08-14T06:05:12;96287.92;;;28.60;45.37
30856;BME280;17570;0.000;0.000;2022-08-14T06:07:39;96285.78;;;28.62;45.64
30856;BME280;17570;0.000;0.000;2022-08-14T06:10:07;96282.58;;;28.60;45.73
30856;BME280;17570;0.000;0.000;2022-08-14T06:12:36;96281.02;;;28.64;45.43
30856;BME280;17570;0.000;0.000;2022-08-14T06:15:04;96271.13;;;28.64;45.36
30856;BME280;17570;0.000;0.000;2022-08-14T06:17:41;96277.58;;;28.68;45.37
30856;BME280;17570;0.000;0.000;2022-08-14T06:20:01;96277.58;;;28.68;45.56
30856;BME280;17570;0.000;0.000;2022-08-14T06:22:29;96265.08;;;28.74;45.00
30856;BME280;17570;0.000;0.000;2022-08-14T06:24:56;96266.64;;;28.70;45.17
30856;BME280;17570;0.000;0.000;2022-08-14T06:27:24;96267.74;;;28.74;44.56
30856;BME280;17570;0.000;0.000;2022-08-14T06:29:51;96262.66;;;28.72;44.79
30856;BME280;17570;0.000;0.000;2022-08-14T06:32:19;96266.37;;;28.71;45.07
30856;BME280;17570;0.000;0.000;2022-08-14T06:34:46;96262.66;;;28.72;44.85
30856;BME280;17570;0.000;0.000;2022-08-14T06:37:16;96260.23;;;28.71;45.16
30856;BME280;17570;0.000;0.000;2022-08-14T06:39:44;96268.55;;;28.75;44.01
30856;BME280;17570;0.000;0.000;2022-08-14T06:42:11;96270.67;;;28.72;43.59
30856;BME280;17570;0.000;0.000;2022-08-14T06:44:39;96273.58;;;28.71;44.26
30856;BME280;17570;0.000;0.000;2022-08-14T06:47:07;96272.52;;;28.72;44.49
30856;BME280;17570;0.000;0.000;2022-08-14T06:49:34;96262.90;;;28.71;44.49
30856;BME280;17570;0.000;0.000;2022-08-14T06:52:02;96270.15;;;28.76;43.93
30856;BME280;17570;0.000;0.000;2022-08-14T06:54:30;96277.09;;;28.77;44.26
30856;BME280;17570;0.000;0.000;2022-08-14T06:56:58;96275.00;;;28.79;44.18
30856;BME280;17570;0.000;0.000;2022-08-14T06:59:25;96273.89;;;28.75;44.48
30856;BME280;17570;0.000;0.000;2022-08-14T07:01:53;96275.76;;;28.74;44.97
30856;BME280;17570;0.000;0.000;2022-08-14T07:04:38;96273.08;;;28.74;44.72
30856;BME280;17570;0.000;0.000;2022-08-14T07:07:24;96276.47;;;28.64;44.46
30856;BME280;17570;0.000;0.000;2022-08-14T07:09:51;96275.06;;;28.57;44.89
30856;BME280;17570;0.000;0.000;2022-08-14T07:12:19;96263.12;;;28.64;44.69
30856;BME280;17570;0.000;0.000;2022-08-14T07:14:46;96272.52;;;28.72;44.67
30856;BME280;17570;0.000;0.000;2022-08-14T07:17:14;96275.23;;;28.77;44.23
30856;BME280;17570;0.000;0.000;2022-08-14T07:19:41;96292.62;;;28.80;44.32
30856;BME280;17570;0.000;0.000;2022-08-14T07:22:09;96280.38;;;28.84;43.62
30856;BME280;17570;0.000;0.000;2022-08-14T07:24:37;96280.64;;;28.82;43.19
30856;BME280;17570;0.000;0.000;2022-08-14T07:27:04;96287.28;;;28.80;43.44
30856;BME280;17570;0.000;0.000;2022-08-14T07:29:32;96287.02;;;28.81;43.84
30856;BME280;17570;0.000;0.000;2022-08-14T07:31:59;96288.89;;;28.81;44.16
30856;BME280;17570;0.000;0.000;2022-08-14T07:34:27;96299.58;;;28.81;44.53
30856;BME280;17570;0.000;0.000;2022-08-14T07:36:54;96300.14;;;28.83;44.27
30856;BME280;17570;0.000;0.000;2022-08-14T07:39:22;96301.75;;;28.84;44.91
30856;BME280;17570;0.000;0.000;2022-08-14T07:41:49;96301.48;;;28.85;44.53
30856;BME280;17570;0.000;0.000;2022-08-14T07:44:17;96298.51;;;28.82;44.91
30856;BME280;17570;0.000;0.000;2022-08-14T07:46:46;96318.84;;;28.83;44.87
30856;BME280;17570;0.000;0.000;2022-08-14T07:49:14;96305.53;;;28.88;45.25
30856;BME280;17570;0.000;0.000;2022-08-14T07:51:41;96302.90;;;28.93;45.00
30856;BME280;17570;0.000;0.000;2022-08-14T07:54:09;96306.88;;;28.90;45.61
30856;BME280;17570;0.000;0.000;2022-08-14T07:56:36;96306.14;;;28.95;45.12
30856;BME280;17570;0.000;0.000;2022-08-14T07:59:04;96308.23;;;28.93;45.14
30856;BME280;17570;0.000;0.000;2022-08-14T08:01:32;96310.98;;;28.98;45.88
30856;BME280;17570;0.000;0.000;2022-08-14T08:04:01;96305.21;;;29.11;44.83
30856;BME280;17570;0.000;0.000;2022-08-14T08:06:31;96303.38;;;29.17;44.81
30856;BME280;17570;0.000;0.000;2022-08-14T08:08:59;96304.21;;;29.22;44.66
30856;BME280;17570;0.000;0.000;2022-08-14T08:11:29;96303.74;;;29.31;44.92
30856;BME280;17570;0.000;0.000;2022-08-14T08:13:57;96307.05;;;29.43;44.32
30856;BME280;17570;0.000;0.000;2022-08-14T08:16:27;96312.39;;;29.43;44.46
30856;BME280;17570;0.000;0.000;2022-08-14T08:18:55;96320.14;;;29.44;44.29
30856;BME280;17570;0.000;0.000;2022-08-14T08:21:22;96321.48;;;29.47;44.13
30856;BME280;17570;0.000;0.000;2022-08-14T08:23:50;96317.08;;;29.63;45.64
30856;BME280;17570;0.000;0.000;2022-08-14T08:26:17;96322.80;;;29.82;46.04
30856;BME280;17570;0.000;0.000;2022-08-14T08:28:54;96320.16;;;29.92;45.54
30856;BME280;17570;0.000;0.000;2022-08-14T08:31:14;96319.95;;;29.98;44.56
30856;BME280;17570;0.000;0.000;2022-08-14T08:33:42;96317.80;;;30.01;44.57
30856;BME280;17570;0.000;0.000;2022-08-14T08:36:09;96318.11;;;30.09;43.53
30856;BME280;17570;0.000;0.000;2022-08-14T08:38:40;96318.34;;;30.08;43.33
30856;BME280;17570;0.000;0.000;2022-08-14T08:41:07;96313.55;;;30.10;43.43
30856;BME280;17570;0.000;0.000;2022-08-14T08:43:35;96312.81;;;30.19;43.02
30856;BME280;17570;0.000;0.000;2022-08-14T08:46:10;96317.66;;;30.28;42.60
30856;BME280;17570;0.000;0.000;2022-08-14T08:48:51;96312.84;;;30.35;42.52
30856;BME280;17570;0.000;0.000;2022-08-14T08:51:27;96317.17;;;30.41;42.20
30856;BME280;17570;0.000;0.000;2022-08-14T08:54:01;96324.65;;;30.39;41.97
30856;BME280;17570;0.000;0.000;2022-08-14T08:56:32;96318.51;;;30.48;40.94
30856;BME280;17570;0.000;0.000;2022-08-14T08:59:01;96313.17;;;30.59;40.63
30856;BME280;17570;0.000;0.000;2022-08-14T09:01:29;96318.29;;;30.70;40.46
30856;BME280;17570;0.000;0.000;2022-08-14T09:04:03;96321.01;;;30.81;40.76
30856;BME280;17570;0.000;0.000;2022-08-14T09:06:31;96318.88;;;30.88;40.53
30856;BME280;17570;0.000;0.000;2022-08-14T09:09:01;96319.41;;;30.90;40.01
30856;BME280;17570;0.000;0.000;2022-08-14T09:11:28;96311.09;;;30.91;38.89
30856;BME280;17570;0.000;0.000;2022-08-14T09:13:56;96297.69;;;30.91;39.27
30856;BME280;17570;0.000;0.000;2022-08-14T09:16:24;96302.00;;;30.92;39.33
30856;BME280;17570;0.000;0.000;2022-08-14T09:18:52;96304.92;;;30.91;38.85
30856;BME280;17570;0.000;0.000;2022-08-14T09:21:21;96299.05;;;30.89;39.53
30856;BME280;17570;0.000;0.000;2022-08-14T09:23:49;96292.08;;;30.88;39.62
30856;BME280;17570;0.000;0.000;2022-08-14T09:26:16;96299.05;;;30.89;39.68
30856;BME280;17570;0.000;0.000;2022-08-14T09:28:44;96293.41;;;30.90;39.60
30856;BME280;17570;0.000;0.000;2022-08-14T09:31:11;96302.52;;;30.79;39.66
30856;BME280;17570;0.000;0.000;2022-08-14T09:36:24;96297.16;;;30.79;39.53
30856;BME280;17570;0.000;0.000;2022-08-14T09:39:05;96304.61;;;30.67;39.60
30856;BME280;17570;0.000;0.000;2022-08-14T09:41:37;96302.20;;;30.55;40.93
30856;BME280;17570;0.000;0.000;2022-08-14T09:46:51;96316.09;;;30.37;41.28
30856;BME280;17570;0.000;0.000;2022-08-14T09:49:28;96321.64;;;30.20;41.27
30856;BME280;17570;0.000;0.000;2022-08-14T09:51:48;96324.30;;;30.15;41.59
30856;BME280;17570;0.000;0.000;2022-08-14T09:54:16;96333.41;;;30.14;41.71
30856;BME280;17570;0.000;0.000;2022-08-14T09:56:48;96337.97;;;30.13;42.23
30856;BME280;17570;0.000;0.000;2022-08-14T09:59:17;96334.70;;;30.11;42.29
30856;BME280;17570;0.000;0.000;2022-08-14T10:01:47;96334.66;;;30.01;42.56
30856;BME280;17570;0.000;0.000;2022-08-14T10:04:18;96330.65;;;29.98;42.82
30856;BME280;17570;0.000;0.000;2022-08-14T10:06:46;96337.30;;;29.91;42.78
30856;BME280;17570;0.000;0.000;2022-08-14T10:09:13;96319.89;;;29.93;42.41
30856;BME280;17570;0.000;0.000;2022-08-14T10:11:52;96297.16;;;29.91;41.48
30856;BME280;17570;0.000;0.000;2022-08-14T10:14:21;96288.81;;;29.82;41.69
30856;BME280;17570;0.000;0.000;2022-08-14T10:16:44;96301.34;;;29.71;41.68
30856;BME280;17570;0.000;0.000;2022-08-14T10:19:12;96302.34;;;29.60;42.38
30856;BME280;17570;0.000;0.000;2022-08-14T10:21:42;96295.66;;;29.58;42.61
30856;BME280;17570;0.000;0.000;2022-08-14T10:24:09;96287.30;;;29.54;42.74
30856;BME280;17570;0.000;0.000;2022-08-14T10:26:39;96278.75;;;29.52;41.97
30856;BME280;17570;0.000;0.000;2022-08-14T10:29:08;96276.29;;;29.45;41.86
30856;BME280;17570;0.000;0.000;2022-08-14T10:31:37;96274.39;;;29.41;42.28
30856;BME280;17570;0.000;0.000;2022-08-14T10:34:09;96267.14;;;29.36;42.71
30856;BME280;17570;0.000;0.000;2022-08-14T10:36:38;96266.05;;;29.32;42.84
30856;BME280;17570;0.000;0.000;2022-08-14T10:39:16;96266.02;;;29.27;42.25
30856;BME280;17570;0.000;0.000;2022-08-14T10:41:44;96260.43;;;29.29;41.95
30856;BME280;17570;0.000;0.000;2022-08-14T10:44:16;96262.78;;;29.20;42.37
30856;BME280;17570;0.000;0.000;2022-08-14T10:46:45;96262.51;;;29.21;42.47
30856;BME280;17570;0.000;0.000;2022-08-14T10:49:16;96259.23;;;29.14;43.05
30856;BME280;17570;0.000;0.000;2022-08-14T10:51:55;96256.33;;;29.16;42.98
30856;BME280;17570;0.000;0.000;2022-08-14T10:59:45;96238.87;;;29.03;43.25
30856;BME280;17570;0.000;0.000;2022-08-14T11:02:17;96241.53;;;29.03;43.64
30856;BME280;17570;0.000;0.000;2022-08-14T11:05:02;96243.94;;;29.05;43.75
30856;BME280;17570;0.000;0.000;2022-08-14T11:07:29;96247.69;;;29.04;44.04
30856;BME280;17570;0.000;0.000;2022-08-14T11:09:59;96249.79;;;28.96;44.45
30856;BME280;17570;0.000;0.000;2022-08-14T11:12:37;96247.95;;;29.02;44.29
30856;BME280;17570;0.000;0.000;2022-08-14T11:14:56;96239.97;;;29.07;44.41
30856;BME280;17570;0.000;0.000;2022-08-14T11:17:27;96239.47;;;29.10;44.71
30856;BME280;17570;0.000;0.000;2022-08-14T11:19:57;96246.91;;;29.08;44.42
30856;BME280;17570;0.000;0.000;2022-08-14T11:22:27;96245.05;;;29.09;44.43
30856;BME280;17570;0.000;0.000;2022-08-14T11:24:58;96237.83;;;29.09;44.62
30856;BME280;17570;0.000;0.000;2022-08-14T11:27:25;96250.16;;;29.10;44.19
30856;BME280;17570;0.000;0.000;2022-08-14T11:29:53;96238.69;;;29.15;43.57
30856;BME280;17570;0.000;0.000;2022-08-14T11:32:22;96238.42;;;29.16;43.73
30856;BME280;17570;0.000;0.000;2022-08-14T11:34:50;96246.17;;;29.18;43.80
30856;BME280;17570;0.000;0.000;2022-08-14T11:37:19;96239.52;;;29.20;43.76
30856;BME280;17570;0.000;0.000;2022-08-14T11:39:46;96234.98;;;29.21;43.63
30856;BME280;17570;0.000;0.000;2022-08-14T11:42:21;96247.54;;;29.20;43.74
30856;BME280;17570;0.000;0.000;2022-08-14T11:44:50;96243.80;;;29.21;44.11
30856;BME280;17570;0.000;0.000;2022-08-14T11:47:18;96248.61;;;29.19;44.06
30856;BME280;17570;0.000;0.000;2022-08-14T11:49:46;96251.84;;;29.27;44.17
30856;BME280;17570;0.000;0.000;2022-08-14T11:52:14;96236.92;;;29.36;44.71
30856;BME280;17570;0.000;0.000;2022-08-14T11:54:41;96234.06;;;29.47;44.07
30856;BME280;17570;0.000;0.000;2022-08-14T11:57:12;96230.90;;;29.56;43.97
30856;BME280;17570;0.000;0.000;2022-08-14T11:59:40;96236.32;;;29.66;43.65
30856;BME280;17570;0.000;0.000;2022-08-14T12:02:11;96230.70;;;29.67;43.45
30856;BME280;17570;0.000;0.000;2022-08-14T12:04:51;96228.57;;;29.74;43.85
30856;BME280;17570;0.000;0.000;2022-08-14T12:07:19;96219.74;;;29.74;43.48
30856;BME280;17570;0.000;0.000;2022-08-14T12:09:50;96214.65;;;29.67;43.58
30856;BME280;17570;0.000;0.000;2022-08-14T12:12:17;96215.48;;;29.78;43.80
30856;BME280;17570;0.000;0.000;2022-08-14T12:14:48;96210.70;;;29.85;43.31
30856;BME280;17570;0.000;0.000;2022-08-14T12:17:19;96205.09;;;29.97;43.37
30856;BME280;17570;0.000;0.000;2022-08-14T12:19:47;96209.67;;;30.12;43.62
30856;BME280;17570;0.000;0.000;2022-08-14T12:22:15;96195.57;;;30.32;43.87
30856;BME280;17570;0.000;0.000;2022-08-14T12:24:43;96213.80;;;30.50;42.80
30856;BME280;17570;0.000;0.000;2022-08-14T12:27:11;96218.88;;;30.67;40.87
30856;BME280;17570;0.000;0.000;2022-08-14T12:29:49;96216.77;;;30.79;40.39
30856;BME280;17570;0.000;0.000;2022-08-14T12:32:09;96224.00;;;30.84;39.85
30856;BME280;17570;0.000;0.000;2022-08-14T12:34:36;96225.08;;;30.88;39.50
30856;BME280;17570;0.000;0.000;2022-08-14T12:37:06;96226.39;;;30.95;39.08
30856;BME280;17570;0.000;0.000;2022-08-14T12:39:35;96222.38;;;31.03;39.55
30856;BME280;17570;0.000;0.000;2022-08-14T12:42:03;96224.77;;;31.10;39.85
30856;BME280;17570;0.000;0.000;2022-08-14T12:44:38;96225.28;;;31.22;39.45
30856;BME280;17570;0.000;0.000;2022-08-14T12:47:09;96232.50;;;31.42;39.16
30856;BME280;17570;0.000;0.000;2022-08-14T12:49:46;96244.23;;;31.61;39.16
30856;BME280;17570;0.000;0.000;2022-08-14T12:52:07;96243.63;;;31.80;37.83
30856;BME280;17570;0.000;0.000;2022-08-14T12:54:34;96248.64;;;32.07;38.37
30856;BME280;17570;0.000;0.000;2022-08-14T12:57:04;96247.17;;;32.30;37.88
30856;BME280;17570;0.000;0.000;2022-08-14T12:59:32;96248.47;;;32.42;37.32
30856;BME280;17570;0.000;0.000;2022-08-14T13:02:03;96255.66;;;32.52;36.72
30856;BME280;17570;0.000;0.000;2022-08-14T13:04:34;96262.59;;;32.58;36.57
30856;BME280;17570;0.000;0.000;2022-08-14T13:07:03;96264.73;;;32.61;36.11
30856;BME280;17570;0.000;0.000;2022-08-14T13:09:35;96277.62;;;32.64;35.62
30856;BME280;17570;0.000;0.000;2022-08-14T13:12:05;96268.51;;;32.60;34.48
30856;BME280;17570;0.000;0.000;2022-08-14T13:14:34;96269.09;;;32.52;34.81
30856;BME280;17570;0.000;0.000;2022-08-14T13:17:03;96280.97;;;32.41;35.84
30856;BME280;17570;0.000;0.000;2022-08-14T13:19:31;96283.66;;;32.41;34.81
30856;BME280;17570;0.000;0.000;2022-08-14T13:21:59;96284.75;;;32.35;35.27
30856;BME280;17570;0.000;0.000;2022-08-14T13:24:26;96286.67;;;32.29;35.00
30856;BME280;17570;0.000;0.000;2022-08-14T13:26:57;96290.21;;;32.19;35.95
30856;BME280;17570;0.000;0.000;2022-08-14T13:29:27;96284.87;;;32.14;35.44
30856;BME280;17570;0.000;0.000;2022-08-14T13:31:57;96290.83;;;32.01;35.98